Time;durP1;ratioP1;P1;durP2;ratioP2;P2;SDS_P1;SDS_P2;PMS_P1;PMS_P2;Temp;Humidity;BMP_temperature;BMP_pressure;BME280_temperature;BME280_humidity;BME280_pressure;Samples;Min_cycle;Max_cycle;Signal;HPM_P1;HPM_P2
2023/05/17 00:00:13;;;;;;;3.13;1.50;;;;;;;;;;5084249;28;20220;-69
2023/05/17 00:02:39;;;;;;;1.48;1.08;;;;;;;;;;5084322;28;20204;-69
2023/05/17 00:05:06;;;;;;;6.68;1.80;;;;;;;;;;5084109;28;20215;-69
2023/05/17 00:07:32;;;;;;;1.30;1.20;;;;;;;;;;5084508;28;20433;-69
2023/05/17 00:09:58;;;;;;;2.00;1.13;;;;;;;;;;5084149;28;20238;-69
2023/05/17 00:12:24;;;;;;;5.03;1.40;;;;;;;;;;5083548;28;20219;-69
2023/05/17 00:14:52;;;;;;;3.25;1.50;;;;;;;;;;5083795;28;20250;-69
2023/05/17 00:17:19;;;;;;;3.50;1.50;;;;;;;;;;5083750;28;20207;-69
2023/05/17 00:19:45;;;;;;;2.65;1.40;;;;;;;;;;5083768;28;20226;-69
2023/05/17 00:22:11;;;;;;;2.15;1.50;;;;;;;;;;5083494;28;20250;-69
2023/05/17 00:24:37;;;;;;;1.75;1.27;;;;;;;;;;5083853;28;20524;-69
2023/05/17 00:27:04;;;;;;;6.75;1.98;;;;;;;;;;5083634;28;20200;-69
2023/05/17 00:29:30;;;;;;;5.82;1.63;;;;;;;;;;5083537;28;20201;-69
2023/05/17 00:31:58;;;;;;;4.22;1.58;;;;;;;;;;5083515;28;20242;-69
2023/05/17 00:34:24;;;;;;;2.45;1.45;;;;;;;;;;5083501;28;20215;-69
2023/05/17 00:36:50;;;;;;;3.85;1.77;;;;;;;;;;5083626;28;20275;-69
2023/05/17 00:39:16;;;;;;;5.32;1.52;;;;;;;;;;5083530;28;20234;-69
2023/05/17 00:41:43;;;;;;;2.50;1.42;;;;;;;;;;5083252;28;20220;-69
2023/05/17 00:44:09;;;;;;;5.97;1.70;;;;;;;;;;5083259;28;20196;-69
2023/05/17 00:46:35;;;;;;;5.07;1.70;;;;;;;;;;5083259;28;20242;-69
2023/05/17 00:49:03;;;;;;;1.55;1.25;;;;;;;;;;5083047;28;20204;-69
2023/05/17 00:51:30;;;;;;;3.10;1.23;;;;;;;;;;5083143;28;20242;-69
2023/05/17 00:53:56;;;;;;;1.33;1.23;;;;;;;;;;5083285;28;20394;-69
2023/05/17 00:56:23;;;;;;;3.00;1.30;;;;;;;;;;5083279;28;20204;-69
2023/05/17 00:58:49;;;;;;;2.78;1.60;;;;;;;;;;5082994;28;20271;-69
2023/05/17 01:01:15;;;;;;;2.60;1.23;;;;;;;;;;5082686;28;20231;-69
2023/05/17 01:03:42;;;;;;;3.58;1.35;;;;;;;;;;5083487;28;20200;-69
2023/05/17 01:06:10;;;;;;;3.22;1.38;;;;;;;;;;5082563;28;20223;-69
2023/05/17 01:08:36;;;;;;;3.97;1.30;;;;;;;;;;5082775;28;20268;-69
2023/05/17 01:11:11;;;;;;;1.63;1.50;;;;;;;;;;5082554;28;20193;-69
2023/05/17 01:13:40;;;;;;;5.90;1.40;;;;;;;;;;5082869;28;20204;-69
2023/05/17 01:16:10;;;;;;;2.58;1.13;;;;;;;;;;5082831;28;20254;-69
2023/05/17 01:18:39;;;;;;;3.08;1.38;;;;;;;;;;5082652;28;20196;-69
2023/05/17 01:21:11;;;;;;;4.78;1.33;;;;;;;;;;5082248;28;20216;-69
2023/05/17 01:23:42;;;;;;;3.95;1.20;;;;;;;;;;5082589;28;20196;-69
2023/05/17 01:26:13;;;;;;;1.63;1.30;;;;;;;;;;5082679;28;20425;-69
2023/05/17 01:28:43;;;;;;;2.90;0.90;;;;;;;;;;5082232;28;20593;-69
2023/05/17 01:31:10;;;;;;;2.25;1.00;;;;;;;;;;5082090;28;20239;-69
2023/05/17 01:33:37;;;;;;;2.97;1.20;;;;;;;;;;5082244;28;20254;-69
2023/05/17 01:36:03;;;;;;;1.38;1.10;;;;;;;;;;5082627;28;20200;-69
2023/05/17 01:38:29;;;;;;;2.40;1.15;;;;;;;;;;5082162;28;20197;-69
2023/05/17 01:40:58;;;;;;;1.67;1.23;;;;;;;;;;5082057;28;20226;-69
2023/05/17 01:43:29;;;;;;;2.22;1.00;;;;;;;;;;5082339;28;20218;-69
2023/05/17 01:46:01;;;;;;;2.65;1.20;;;;;;;;;;5082169;28;20488;-69
2023/05/17 01:48:31;;;;;;;4.22;1.20;;;;;;;;;;5082122;28;20197;-69
2023/05/17 01:50:58;;;;;;;3.13;1.55;;;;;;;;;;5082316;28;20246;-69
2023/05/17 01:53:29;;;;;;;7.70;1.20;;;;;;;;;;5082291;28;20243;-69
2023/05/17 01:55:56;;;;;;;2.20;1.20;;;;;;;;;;5082174;28;20504;-69
2023/05/17 01:58:25;;;;;;;2.15;1.35;;;;;;;;;;5082073;28;20211;-69
2023/05/17 02:00:54;;;;;;;2.72;1.08;;;;;;;;;;5081839;28;20531;-69
2023/05/17 02:03:22;;;;;;;3.70;1.27;;;;;;;;;;5081887;28;20231;-69
2023/05/17 02:05:48;;;;;;;4.03;1.23;;;;;;;;;;5081828;28;20223;-69
2023/05/17 02:08:14;;;;;;;3.42;0.90;;;;;;;;;;5082109;28;20222;-69
2023/05/17 02:10:40;;;;;;;2.47;1.02;;;;;;;;;;5081824;28;20193;-69
2023/05/17 02:13:06;;;;;;;1.67;1.00;;;;;;;;;;5081715;28;20250;-69
2023/05/17 02:15:33;;;;;;;2.88;1.10;;;;;;;;;;5081644;28;20205;-69
2023/05/17 02:17:59;;;;;;;1.33;0.95;;;;;;;;;;5082233;28;20196;-69
2023/05/17 02:20:27;;;;;;;3.60;1.20;;;;;;;;;;5081863;28;20458;-69
2023/05/17 02:22:53;;;;;;;2.13;1.10;;;;;;;;;;5081799;28;20242;-69
2023/05/17 02:25:19;;;;;;;3.97;1.05;;;;;;;;;;5081735;28;20204;-69
2023/05/17 02:27:46;;;;;;;1.00;1.00;;;;;;;;;;5082038;28;20278;-69
2023/05/17 02:30:15;;;;;;;3.15;1.10;;;;;;;;;;5081600;28;20422;-69
2023/05/17 02:32:42;;;;;;;4.80;1.92;;;;;;;;;;5081436;28;20196;-69
2023/05/17 02:35:08;;;;;;;2.65;1.17;;;;;;;;;;5081886;28;20258;-69
2023/05/17 02:37:36;;;;;;;3.08;1.65;;;;;;;;;;5081710;28;20242;-69
2023/05/17 02:40:03;;;;;;;1.83;1.70;;;;;;;;;;5081550;28;20504;-69
2023/05/17 02:42:29;;;;;;;3.22;1.83;;;;;;;;;;5084146;28;20426;-69
2023/05/17 02:44:56;;;;;;;3.35;1.73;;;;;;;;;;5085585;28;20390;-69
2023/05/17 02:47:22;;;;;;;2.88;1.42;;;;;;;;;;5085444;28;20202;-69
2023/05/17 02:49:49;;;;;;;3.75;1.90;;;;;;;;;;5085532;28;20234;-69
2023/05/17 02:52:15;;;;;;;3.78;2.03;;;;;;;;;;5085253;28;20204;-69
2023/05/17 02:54:43;;;;;;;4.25;2.20;;;;;;;;;;5085405;28;20496;-69
2023/05/17 02:57:09;;;;;;;5.63;1.95;;;;;;;;;;5085361;28;20558;-69
2023/05/17 02:59:35;;;;;;;5.03;2.35;;;;;;;;;;5085628;28;20196;-69
2023/05/17 03:02:02;;;;;;;3.08;1.95;;;;;;;;;;5085135;28;20262;-69
2023/05/17 03:04:28;;;;;;;2.17;1.88;;;;;;;;;;5085116;28;20200;-69
2023/05/17 03:06:54;;;;;;;3.10;1.70;;;;;;;;;;5085154;28;20218;-69
2023/05/17 03:09:21;;;;;;;2.05;1.70;;;;;;;;;;5085589;28;20203;-69
2023/05/17 03:11:49;;;;;;;2.80;1.65;;;;;;;;;;5085401;28;20200;-69
2023/05/17 03:14:15;;;;;;;2.20;1.50;;;;;;;;;;5084882;28;20211;-69
2023/05/17 03:16:41;;;;;;;4.15;1.42;;;;;;;;;;5085455;28;20435;-69
2023/05/17 03:19:07;;;;;;;2.50;1.63;;;;;;;;;;5085081;28;20234;-69
2023/05/17 03:21:34;;;;;;;2.00;1.50;;;;;;;;;;5084598;28;20449;-69
2023/05/17 03:24:00;;;;;;;3.05;1.75;;;;;;;;;;5084879;28;20201;-69
2023/05/17 03:26:26;;;;;;;5.50;1.90;;;;;;;;;;5085297;28;20418;-69
2023/05/17 03:28:54;;;;;;;4.28;2.25;;;;;;;;;;5084614;28;20229;-69
2023/05/17 03:31:20;;;;;;;3.53;1.67;;;;;;;;;;5084795;28;20480;-69
2023/05/17 03:33:46;;;;;;;5.18;1.60;;;;;;;;;;5084776;28;20201;-69
2023/05/17 03:36:13;;;;;;;2.20;1.58;;;;;;;;;;5084629;28;20267;-69
2023/05/17 03:38:39;;;;;;;2.60;1.30;;;;;;;;;;5084593;28;20207;-69
2023/05/17 03:41:05;;;;;;;2.88;1.70;;;;;;;;;;5084122;28;20220;-69
2023/05/17 03:43:32;;;;;;;2.95;1.45;;;;;;;;;;5084732;28;20200;-69
2023/05/17 03:45:59;;;;;;;1.63;1.10;;;;;;;;;;5084560;28;20200;-69
2023/05/17 03:48:25;;;;;;;3.00;1.25;;;;;;;;;;5084507;28;20200;-69
2023/05/17 03:50:52;;;;;;;4.68;1.20;;;;;;;;;;5084362;28;20259;-69
2023/05/17 03:53:18;;;;;;;2.58;1.42;;;;;;;;;;5083788;28;20196;-69
2023/05/17 03:55:44;;;;;;;3.33;1.30;;;;;;;;;;5084238;28;20242;-69
2023/05/17 03:58:10;;;;;;;4.20;1.55;;;;;;;;;;5084519;28;20267;-69
2023/05/17 04:00:36;;;;;;;1.23;1.08;;;;;;;;;;5084146;28;20242;-69
2023/05/17 04:03:04;;;;;;;2.20;1.48;;;;;;;;;;5084121;28;20499;-69
2023/05/17 04:05:31;;;;;;;3.28;1.48;;;;;;;;;;5084312;28;20203;-69
2023/05/17 04:07:57;;;;;;;4.45;1.40;;;;;;;;;;5084711;28;20203;-69
2023/05/17 04:10:24;;;;;;;1.88;1.67;;;;;;;;;;5084793;28;20234;-70
2023/05/17 04:12:50;;;;;;;7.05;1.80;;;;;;;;;;5084845;28;20196;-69
2023/05/17 04:15:16;;;;;;;4.05;1.40;;;;;;;;;;5084288;28;20452;-70
2023/05/17 04:17:42;;;;;;;1.58;1.27;;;;;;;;;;5084391;28;20234;-70
2023/05/17 04:20:11;;;;;;;2.15;1.17;;;;;;;;;;5084340;28;20199;-70
2023/05/17 04:22:37;;;;;;;2.55;1.35;;;;;;;;;;5084114;28;20223;-70
2023/05/17 04:25:03;;;;;;;2.55;1.50;;;;;;;;;;5084064;28;20249;-70
2023/05/17 04:27:30;;;;;;;3.30;1.60;;;;;;;;;;5083948;28;20224;-70
2023/05/17 04:29:57;;;;;;;3.20;1.35;;;;;;;;;;5084316;28;20394;-70
2023/05/17 04:32:23;;;;;;;2.28;1.50;;;;;;;;;;5083866;28;20234;-70
2023/05/17 04:34:50;;;;;;;1.58;1.45;;;;;;;;;;5084003;28;20197;-70
2023/05/17 04:37:18;;;;;;;4.07;1.80;;;;;;;;;;5083822;28;20210;-70
2023/05/17 04:39:45;;;;;;;5.25;1.95;;;;;;;;;;5083876;28;20250;-70
2023/05/17 04:42:11;;;;;;;3.10;1.98;;;;;;;;;;5083723;28;20224;-70
2023/05/17 04:44:37;;;;;;;4.80;2.05;;;;;;;;;;5084106;28;20310;-70
2023/05/17 04:47:03;;;;;;;4.32;1.77;;;;;;;;;;5083801;28;20200;-70
2023/05/17 04:49:30;;;;;;;4.78;1.92;;;;;;;;;;5083656;28;20200;-70
2023/05/17 04:51:56;;;;;;;2.58;2.33;;;;;;;;;;5083306;28;20260;-70
2023/05/17 04:54:24;;;;;;;2.35;1.73;;;;;;;;;;5083993;28;20243;-70
2023/05/17 04:56:50;;;;;;;4.65;2.35;;;;;;;;;;5083523;28;20204;-70
2023/05/17 04:59:17;;;;;;;4.22;2.20;;;;;;;;;;5083726;28;20201;-70
2023/05/17 05:01:43;;;;;;;3.05;1.77;;;;;;;;;;5083314;28;20216;-70
2023/05/17 05:04:09;;;;;;;2.53;2.10;;;;;;;;;;5082548;28;20201;-70
2023/05/17 05:06:35;;;;;;;4.90;2.40;;;;;;;;;;5083191;28;20383;-70
2023/05/17 05:09:02;;;;;;;9.07;2.30;;;;;;;;;;5083377;28;20196;-70
2023/05/17 05:11:31;;;;;;;5.95;2.30;;;;;;;;;;5082711;28;20204;-70
2023/05/17 05:13:57;;;;;;;5.30;2.42;;;;;;;;;;5082901;28;20232;-70
2023/05/17 05:16:24;;;;;;;2.50;2.30;;;;;;;;;;5082711;28;20204;-70
2023/05/17 05:18:50;;;;;;;4.20;2.35;;;;;;;;;;5082585;28;20204;-70
2023/05/17 05:21:16;;;;;;;7.30;2.75;;;;;;;;;;5082235;28;20689;-70
2023/05/17 05:23:42;;;;;;;7.95;3.22;;;;;;;;;;5082839;28;20234;-70
2023/05/17 05:26:09;;;;;;;8.68;3.13;;;;;;;;;;5082951;28;20196;-70
2023/05/17 05:28:36;;;;;;;12.93;3.42;;;;;;;;;;5082831;28;20216;-70
2023/05/17 05:31:03;;;;;;;6.85;2.75;;;;;;;;;;5082435;28;20224;-70
2023/05/17 05:33:30;;;;;;;10.68;3.05;;;;;;;;;;5082536;28;20389;-70
2023/05/17 05:35:56;;;;;;;7.65;2.50;;;;;;;;;;5082834;28;20224;-70
2023/05/17 05:38:23;;;;;;;9.65;2.47;;;;;;;;;;5082555;28;20219;-70
2023/05/17 05:40:49;;;;;;;7.50;2.78;;;;;;;;;;5082347;28;20242;-70
2023/05/17 05:43:15;;;;;;;2.88;2.42;;;;;;;;;;5082128;28;20216;-70
2023/05/17 05:45:45;;;;;;;6.13;2.45;;;;;;;;;;5082278;28;20196;-70
2023/05/17 05:48:11;;;;;;;6.43;2.50;;;;;;;;;;5082672;28;20219;-70
2023/05/17 05:50:38;;;;;;;2.72;2.30;;;;;;;;;;5081982;28;20269;-70
2023/05/17 05:53:05;;;;;;;4.32;2.67;;;;;;;;;;5082354;28;20238;-62
2023/05/17 05:55:31;;;;;;;5.40;2.28;;;;;;;;;;5082029;28;20197;-61
2023/05/17 05:57:57;;;;;;;12.52;2.67;;;;;;;;;;5081487;28;20200;-60
2023/05/17 06:00:23;;;;;;;4.30;2.60;;;;;;;;;;5066882;28;20454;-60
2023/05/17 06:02:52;;;;;;;2.33;2.00;;;;;;;;;;5070165;28;20309;-60
2023/05/17 06:05:18;;;;;;;7.78;2.00;;;;;;;;;;5073657;28;20240;-60
2023/05/17 06:07:44;;;;;;;2.42;1.90;;;;;;;;;;5068129;28;20216;-60
2023/05/17 06:10:11;;;;;;;4.03;1.98;;;;;;;;;;5068780;28;20208;-60
2023/05/17 06:12:37;;;;;;;5.38;1.88;;;;;;;;;;5075976;28;20208;-59
2023/05/17 06:15:03;;;;;;;3.60;1.63;;;;;;;;;;5076240;28;20220;-59
2023/05/17 06:17:30;;;;;;;4.55;1.88;;;;;;;;;;5071912;28;20205;-60
2023/05/17 06:19:57;;;;;;;3.47;1.77;;;;;;;;;;5064202;28;20219;-60
2023/05/17 06:22:24;;;;;;;5.13;2.08;;;;;;;;;;5072331;28;20273;-60
2023/05/17 06:24:50;;;;;;;3.40;1.98;;;;;;;;;;5073519;28;20475;-60
2023/05/17 06:27:16;;;;;;;5.72;2.25;;;;;;;;;;5072491;28;20266;-60
2023/05/17 06:29:42;;;;;;;5.50;2.22;;;;;;;;;;5065554;28;20565;-59
2023/05/17 06:32:08;;;;;;;4.65;1.80;;;;;;;;;;5072166;28;20208;-59
2023/05/17 06:34:35;;;;;;;5.55;2.00;;;;;;;;;;5074916;28;20538;-59
2023/05/17 06:37:02;;;;;;;4.25;2.28;;;;;;;;;;5074551;28;20239;-59
2023/05/17 06:39:29;;;;;;;4.60;2.15;;;;;;;;;;5075428;28;20258;-60
2023/05/17 06:41:55;;;;;;;6.07;2.40;;;;;;;;;;5074733;28;20583;-59
2023/05/17 06:44:21;;;;;;;8.52;2.40;;;;;;;;;;5074247;28;20262;-60
2023/05/17 06:46:47;;;;;;;3.08;2.17;;;;;;;;;;5074535;28;20212;-58
2023/05/17 06:49:14;;;;;;;5.15;2.17;;;;;;;;;;5075145;28;20375;-60
2023/05/17 06:51:40;;;;;;;4.95;2.00;;;;;;;;;;5074206;28;20217;-60
2023/05/17 06:54:07;;;;;;;5.57;2.40;;;;;;;;;;5070127;28;20520;-60
2023/05/17 06:56:34;;;;;;;3.67;2.33;;;;;;;;;;5073811;28;20212;-60
2023/05/17 06:59:01;;;;;;;3.42;2.30;;;;;;;;;;5074251;28;20212;-60
2023/05/17 07:01:27;;;;;;;8.93;2.67;;;;;;;;;;5073778;28;20548;-60
2023/05/17 07:03:53;;;;;;;3.45;2.20;;;;;;;;;;5074685;28;20601;-60
2023/05/17 07:06:20;;;;;;;5.10;2.60;;;;;;;;;;5074927;28;21055;-60
2023/05/17 07:08:46;;;;;;;2.38;2.17;;;;;;;;;;5074046;28;20303;-60
2023/05/17 07:11:13;;;;;;;5.07;2.47;;;;;;;;;;5073584;28;20454;-59
2023/05/17 07:13:40;;;;;;;4.90;2.78;;;;;;;;;;5073884;28;20216;-61
2023/05/17 07:16:07;;;;;;;3.47;2.63;;;;;;;;;;5073725;28;20209;-60
2023/05/17 07:18:33;;;;;;;6.88;2.05;;;;;;;;;;5072618;28;20232;-59
2023/05/17 07:20:59;;;;;;;7.70;2.47;;;;;;;;;;5073594;28;20238;-60
2023/05/17 07:23:26;;;;;;;4.78;2.58;;;;;;;;;;5073431;28;20295;-60
2023/05/17 07:25:52;;;;;;;4.50;2.28;;;;;;;;;;5073580;28;20212;-60
2023/05/17 07:28:19;;;;;;;2.50;2.28;;;;;;;;;;5075660;28;20277;-60
2023/05/17 07:30:46;;;;;;;4.72;2.08;;;;;;;;;;5076707;28;20545;-60
2023/05/17 07:33:12;;;;;;;5.05;2.35;;;;;;;;;;5077442;28;20458;-60
2023/05/17 07:35:38;;;;;;;6.32;2.30;;;;;;;;;;5077561;28;20543;-60
2023/05/17 07:38:04;;;;;;;7.55;2.42;;;;;;;;;;5077241;28;20529;-60
2023/05/17 07:40:30;;;;;;;4.32;2.40;;;;;;;;;;5077544;28;20512;-60
2023/05/17 07:42:57;;;;;;;6.15;2.45;;;;;;;;;;5077330;28;20684;-60
2023/05/17 07:45:24;;;;;;;4.97;2.28;;;;;;;;;;5077335;28;20224;-60
2023/05/17 07:47:51;;;;;;;4.50;2.50;;;;;;;;;;5077151;28;20372;-59
2023/05/17 07:50:17;;;;;;;7.82;2.50;;;;;;;;;;5077526;28;20216;-59
2023/05/17 07:52:43;;;;;;;7.32;2.97;;;;;;;;;;5077273;28;20222;-60
2023/05/17 07:55:09;;;;;;;9.82;2.50;;;;;;;;;;5076447;28;20219;-60
2023/05/17 07:57:36;;;;;;;6.18;2.47;;;;;;;;;;5076703;28;20235;-60
2023/05/17 08:00:02;;;;;;;6.72;2.65;;;;;;;;;;5076726;28;20212;-59
2023/05/17 08:02:30;;;;;;;6.78;2.78;;;;;;;;;;5075661;28;20238;-60
2023/05/17 08:04:56;;;;;;;9.85;2.63;;;;;;;;;;5076325;28;20212;-60
2023/05/17 08:07:22;;;;;;;3.05;2.47;;;;;;;;;;5076270;28;20212;-60
2023/05/17 08:09:48;;;;;;;5.53;2.75;;;;;;;;;;5076529;28;20205;-59
2023/05/17 08:12:15;;;;;;;5.72;2.90;;;;;;;;;;5076637;28;20451;-60
2023/05/17 08:14:41;;;;;;;7.13;2.80;;;;;;;;;;5076727;28;20544;-59
2023/05/17 08:17:07;;;;;;;6.50;2.65;;;;;;;;;;5076431;28;20258;-58
2023/05/17 08:19:35;;;;;;;3.00;2.65;;;;;;;;;;5076523;28;20243;-60
2023/05/17 08:22:02;;;;;;;6.13;2.70;;;;;;;;;;5076084;28;20212;-59
2023/05/17 08:24:28;;;;;;;5.60;3.03;;;;;;;;;;5077049;28;20272;-60
2023/05/17 08:26:55;;;;;;;7.50;3.30;;;;;;;;;;5076868;28;20228;-59
2023/05/17 08:29:21;;;;;;;4.88;2.95;;;;;;;;;;5076649;28;20212;-59
2023/05/17 08:31:47;;;;;;;8.73;2.78;;;;;;;;;;5076122;28;20254;-59
2023/05/17 08:34:14;;;;;;;4.82;3.10;;;;;;;;;;5077004;28;20254;-58
2023/05/17 08:36:41;;;;;;;3.63;2.67;;;;;;;;;;5076049;28;20546;-58
2023/05/17 08:39:08;;;;;;;7.80;3.05;;;;;;;;;;5076220;28;20212;-59
2023/05/17 08:41:34;;;;;;;4.57;2.63;;;;;;;;;;5076842;28;20266;-58
2023/05/17 08:44:03;;;;;;;8.27;3.30;;;;;;;;;;5075937;28;20231;-59
2023/05/17 08:46:30;;;;;;;9.15;2.60;;;;;;;;;;5075681;28;21049;-60
2023/05/17 08:48:58;;;;;;;3.60;2.72;;;;;;;;;;5076030;28;20250;-59
2023/05/17 08:51:25;;;;;;;5.88;3.08;;;;;;;;;;5075435;28;20531;-60
2023/05/17 08:53:52;;;;;;;4.57;2.92;;;;;;;;;;5076083;28;20373;-59
2023/05/17 08:56:20;;;;;;;6.13;3.22;;;;;;;;;;5075000;28;20558;-59
2023/05/17 08:58:48;;;;;;;4.18;3.05;;;;;;;;;;5075418;28;20263;-60
2023/05/17 09:01:14;;;;;;;4.82;3.10;;;;;;;;;;5074860;28;20408;-60
2023/05/17 09:03:42;;;;;;;6.75;2.67;;;;;;;;;;5074780;28;20232;-59
2023/05/17 09:06:09;;;;;;;5.20;3.00;;;;;;;;;;5075229;28;20236;-59
2023/05/17 09:08:36;;;;;;;5.38;3.00;;;;;;;;;;5074717;28;20589;-59
2023/05/17 09:11:04;;;;;;;7.65;3.20;;;;;;;;;;5074807;28;20515;-59
2023/05/17 09:13:30;;;;;;;5.22;3.25;;;;;;;;;;5074448;28;20277;-60
2023/05/17 09:15:56;;;;;;;3.88;2.92;;;;;;;;;;5075042;28;20518;-59
2023/05/17 09:18:28;;;;;;;6.45;3.30;;;;;;;;;;5074781;28;20263;-59
2023/05/17 09:20:55;;;;;;;6.90;3.15;;;;;;;;;;5063887;28;20258;-58
2023/05/17 09:23:22;;;;;;;6.53;3.15;;;;;;;;;;5074547;28;20228;-59
2023/05/17 09:25:48;;;;;;;4.85;2.85;;;;;;;;;;5057380;28;20209;-58
2023/05/17 09:28:18;;;;;;;12.35;3.17;;;;;;;;;;5075226;28;20447;-59
2023/05/17 09:30:44;;;;;;;4.65;2.88;;;;;;;;;;5069233;28;20447;-59
2023/05/17 09:33:11;;;;;;;3.17;2.90;;;;;;;;;;5075200;28;20269;-58
2023/05/17 09:35:38;;;;;;;6.88;3.35;;;;;;;;;;5075151;28;20212;-59
2023/05/17 09:38:05;;;;;;;4.50;2.92;;;;;;;;;;5075082;28;20216;-59
2023/05/17 09:40:32;;;;;;;4.47;2.95;;;;;;;;;;5074573;28;20258;-59
2023/05/17 09:42:58;;;;;;;6.43;3.28;;;;;;;;;;5075336;28;20236;-59
2023/05/17 09:45:26;;;;;;;7.03;2.78;;;;;;;;;;5075180;28;20642;-59
2023/05/17 09:47:52;;;;;;;4.32;2.70;;;;;;;;;;5074234;28;20502;-61
2023/05/17 09:50:19;;;;;;;3.63;2.80;;;;;;;;;;5074948;28;20208;-60
2023/05/17 09:52:45;;;;;;;5.93;3.35;;;;;;;;;;5074513;28;20212;-59
2023/05/17 09:55:12;;;;;;;6.63;3.75;;;;;;;;;;5075101;28;20280;-59
2023/05/17 09:57:40;;;;;;;3.85;2.90;;;;;;;;;;5074261;28;20211;-59
2023/05/17 10:00:10;;;;;;;3.67;2.92;;;;;;;;;;5074232;28;20536;-59
2023/05/17 10:02:39;;;;;;;5.50;2.67;;;;;;;;;;5073327;28;20232;-59
2023/05/17 10:05:08;;;;;;;3.03;2.50;;;;;;;;;;5074818;28;20204;-59
2023/05/17 10:07:34;;;;;;;3.15;2.92;;;;;;;;;;5074789;28;20216;-59
2023/05/17 10:10:01;;;;;;;5.70;2.78;;;;;;;;;;5074619;28;20213;-59
2023/05/17 10:12:29;;;;;;;8.82;3.03;;;;;;;;;;5075038;28;20254;-59
2023/05/17 10:14:55;;;;;;;2.97;2.70;;;;;;;;;;5073995;28;20261;-59
2023/05/17 10:17:23;;;;;;;4.97;2.72;;;;;;;;;;5074540;28;20569;-59
2023/05/17 10:19:51;;;;;;;3.80;2.60;;;;;;;;;;5073469;28;20273;-58
2023/05/17 10:22:17;;;;;;;5.93;3.10;;;;;;;;;;5074110;28;20211;-59
2023/05/17 10:24:45;;;;;;;5.68;2.60;;;;;;;;;;5074517;28;20232;-59
2023/05/17 10:27:12;;;;;;;5.45;2.80;;;;;;;;;;5061824;28;20219;-61
2023/05/17 10:29:38;;;;;;;3.80;2.42;;;;;;;;;;5074163;28;20200;-61
2023/05/17 10:32:06;;;;;;;3.50;2.38;;;;;;;;;;5073920;28;20220;-60
2023/05/17 10:34:34;;;;;;;3.78;2.72;;;;;;;;;;5074590;28;20208;-60
2023/05/17 10:37:02;;;;;;;3.67;2.10;;;;;;;;;;5074633;28;20595;-59
2023/05/17 10:39:30;;;;;;;4.53;2.17;;;;;;;;;;5074142;28;20543;-59
2023/05/17 10:41:57;;;;;;;3.92;2.08;;;;;;;;;;5073762;28;20220;-59
2023/05/17 10:44:24;;;;;;;4.75;2.30;;;;;;;;;;5073773;28;20227;-59
2023/05/17 10:46:51;;;;;;;2.53;2.05;;;;;;;;;;5073643;28;20519;-58
2023/05/17 10:49:17;;;;;;;2.70;1.98;;;;;;;;;;5073602;28;20606;-59
2023/05/17 10:51:45;;;;;;;2.97;2.40;;;;;;;;;;5073907;28;20527;-59
2023/05/17 10:54:17;;;;;;;4.40;2.70;;;;;;;;;;5073557;28;20243;-59
2023/05/17 10:56:47;;;;;;;7.63;2.97;;;;;;;;;;5073683;28;20213;-59
2023/05/17 10:59:18;;;;;;;3.42;2.83;;;;;;;;;;5073890;28;20488;-58
2023/05/17 11:02:05;;;;;;;4.35;2.65;;;;;;;;;;5072477;28;20235;-59
2023/05/17 11:04:33;;;;;;;4.45;2.75;;;;;;;;;;5071999;28;20228;-59
2023/05/17 11:07:20;;;;;;;4.47;2.67;;;;;;;;;;5076307;28;20275;-59
2023/05/17 11:09:49;;;;;;;6.80;2.97;;;;;;;;;;5076961;28;20231;-59
2023/05/17 11:12:16;;;;;;;5.20;2.88;;;;;;;;;;5076664;28;20216;-59
2023/05/17 11:14:43;;;;;;;3.88;2.92;;;;;;;;;;5077868;28;20589;-60
2023/05/17 11:17:12;;;;;;;6.13;3.17;;;;;;;;;;5077421;28;20574;-59
2023/05/17 11:19:38;;;;;;;6.22;2.92;;;;;;;;;;5077858;28;20243;-59
2023/05/17 11:22:10;;;;;;;3.42;3.13;;;;;;;;;;5077358;28;20216;-59
2023/05/17 11:24:39;;;;;;;6.68;3.50;;;;;;;;;;5077591;28;20231;-59
2023/05/17 11:27:06;;;;;;;6.20;3.10;;;;;;;;;;5076943;28;20200;-59
2023/05/17 11:29:33;;;;;;;3.65;2.75;;;;;;;;;;5073959;28;20218;-59
2023/05/17 11:31:59;;;;;;;4.22;2.72;;;;;;;;;;5076791;28;20419;-60
2023/05/17 11:34:27;;;;;;;5.05;3.10;;;;;;;;;;5078239;28;20208;-60
2023/05/17 11:36:54;;;;;;;5.00;3.25;;;;;;;;;;5077233;28;20212;-59
2023/05/17 11:39:21;;;;;;;5.25;3.03;;;;;;;;;;5077140;28;20220;-59
2023/05/17 11:41:48;;;;;;;3.08;2.75;;;;;;;;;;5077185;28;20360;-60
2023/05/17 11:44:18;;;;;;;3.80;2.92;;;;;;;;;;5077324;28;20556;-59
2023/05/17 11:46:44;;;;;;;4.20;2.80;;;;;;;;;;5077756;28;20204;-60
2023/05/17 11:49:11;;;;;;;3.95;2.97;;;;;;;;;;5076406;28;20458;-59
2023/05/17 11:51:37;;;;;;;3.10;2.72;;;;;;;;;;5077055;28;20216;-60
2023/05/17 11:54:05;;;;;;;4.45;2.92;;;;;;;;;;5076936;28;20241;-60
2023/05/17 11:56:34;;;;;;;4.57;2.97;;;;;;;;;;5077105;28;20400;-59
2023/05/17 11:59:00;;;;;;;5.20;2.90;;;;;;;;;;5076710;28;20213;-60
2023/05/17 12:01:28;;;;;;;2.95;2.45;;;;;;;;;;5076509;28;20240;-59
2023/05/17 12:03:58;;;;;;;5.50;2.75;;;;;;;;;;5076959;28;20231;-60
2023/05/17 12:06:24;;;;;;;5.55;3.20;;;;;;;;;;5076733;28;20300;-59
2023/05/17 12:08:51;;;;;;;5.32;2.78;;;;;;;;;;5077340;28;20530;-60
2023/05/17 12:11:18;;;;;;;3.08;2.78;;;;;;;;;;5076209;28;20208;-59
2023/05/17 12:13:47;;;;;;;6.07;3.13;;;;;;;;;;5075818;28;20593;-60
2023/05/17 12:16:14;;;;;;;5.28;2.88;;;;;;;;;;5076750;28;20218;-60
2023/05/17 12:18:42;;;;;;;5.47;2.75;;;;;;;;;;5076447;28;20250;-62
2023/05/17 12:21:09;;;;;;;3.40;2.67;;;;;;;;;;5075477;28;20495;-61
2023/05/17 12:23:36;;;;;;;4.50;2.95;;;;;;;;;;5076686;28;20611;-61
2023/05/17 12:26:03;;;;;;;5.68;2.90;;;;;;;;;;5075925;28;20212;-62
2023/05/17 12:28:29;;;;;;;3.90;2.90;;;;;;;;;;5076087;28;20417;-59
2023/05/17 12:30:57;;;;;;;7.07;2.80;;;;;;;;;;5076720;28;20642;-60
2023/05/17 12:33:24;;;;;;;5.43;2.65;;;;;;;;;;5076294;28;20371;-59
2023/05/17 12:35:52;;;;;;;4.28;2.55;;;;;;;;;;5076976;28;20471;-59
2023/05/17 12:38:18;;;;;;;2.97;2.60;;;;;;;;;;5075919;28;20546;-60
2023/05/17 12:40:46;;;;;;;5.55;2.50;;;;;;;;;;5077335;28;20212;-59
2023/05/17 12:43:12;;;;;;;4.38;2.55;;;;;;;;;;5077079;28;20294;-60
2023/05/17 12:45:41;;;;;;;5.13;2.67;;;;;;;;;;5076756;28;20215;-59
2023/05/17 12:48:07;;;;;;;5.00;2.70;;;;;;;;;;5076508;28;20277;-60
2023/05/17 12:50:33;;;;;;;5.85;2.95;;;;;;;;;;5077726;28;20426;-60
2023/05/17 12:53:07;;;;;;;3.30;2.75;;;;;;;;;;5077794;28;20246;-60
2023/05/17 12:55:36;;;;;;;5.38;2.70;;;;;;;;;;5077622;28;20857;-60
2023/05/17 12:58:02;;;;;;;4.18;2.63;;;;;;;;;;5077513;28;20281;-59
2023/05/17 13:00:28;;;;;;;5.18;2.80;;;;;;;;;;5077117;28;20262;-60
2023/05/17 13:02:54;;;;;;;6.78;3.40;;;;;;;;;;5077525;28;20403;-60
2023/05/17 13:05:21;;;;;;;3.85;2.97;;;;;;;;;;5071425;28;20282;-60
2023/05/17 13:07:47;;;;;;;4.95;2.80;;;;;;;;;;5075757;28;20599;-60
2023/05/17 13:10:21;;;;;;;3.60;2.58;;;;;;;;;;5075815;28;20204;-60
2023/05/17 13:12:55;;;;;;;2.65;2.45;;;;;;;;;;5061226;28;20257;-59
2023/05/17 13:15:21;;;;;;;6.45;2.67;;;;;;;;;;5076649;28;20262;-60
2023/05/17 13:17:48;;;;;;;3.95;2.80;;;;;;;;;;5075811;28;20450;-60
2023/05/17 13:20:15;;;;;;;4.30;2.70;;;;;;;;;;5075968;28;20240;-59
2023/05/17 13:22:45;;;;;;;7.05;2.97;;;;;;;;;;5076240;28;20212;-60
2023/05/17 13:25:11;;;;;;;5.72;2.65;;;;;;;;;;5075253;28;20217;-60
2023/05/17 13:27:43;;;;;;;4.88;2.90;;;;;;;;;;5076298;28;20227;-60
2023/05/17 13:30:10;;;;;;;6.80;2.97;;;;;;;;;;5075428;28;20208;-60
2023/05/17 13:32:37;;;;;;;5.50;2.83;;;;;;;;;;5076093;28;21190;-60
2023/05/17 13:35:03;;;;;;;6.22;2.83;;;;;;;;;;5075776;28;20216;-60
2023/05/17 13:37:29;;;;;;;5.22;2.92;;;;;;;;;;5076080;28;20205;-60
2023/05/17 13:39:55;;;;;;;5.38;3.00;;;;;;;;;;5075973;28;20531;-60
2023/05/17 13:42:22;;;;;;;4.50;2.25;;;;;;;;;;5076709;28;20208;-60
2023/05/17 13:44:49;;;;;;;3.40;2.72;;;;;;;;;;5075739;28;20469;-60
2023/05/17 13:47:16;;;;;;;3.92;2.95;;;;;;;;;;5075370;28;20216;-58
2023/05/17 13:49:42;;;;;;;6.38;2.55;;;;;;;;;;5075625;28;20403;-60
2023/05/17 13:52:11;;;;;;;6.22;3.15;;;;;;;;;;5075593;28;20216;-60
2023/05/17 13:54:37;;;;;;;3.85;2.65;;;;;;;;;;5075322;28;20464;-60
2023/05/17 13:57:04;;;;;;;4.47;3.03;;;;;;;;;;5075598;28;20215;-60
2023/05/17 13:59:30;;;;;;;5.07;2.63;;;;;;;;;;5075511;28;20442;-60
2023/05/17 14:01:58;;;;;;;4.60;2.63;;;;;;;;;;5075435;28;20205;-60
2023/05/17 14:04:24;;;;;;;8.65;3.28;;;;;;;;;;5076045;28;20551;-60
2023/05/17 14:06:51;;;;;;;6.25;2.55;;;;;;;;;;5074291;28;20827;-60
2023/05/17 14:09:17;;;;;;;7.10;3.20;;;;;;;;;;5074690;28;20212;-60
2023/05/17 14:11:44;;;;;;;5.63;2.72;;;;;;;;;;5073280;28;20215;-60
2023/05/17 14:14:10;;;;;;;6.28;3.20;;;;;;;;;;5069616;28;20216;-60
2023/05/17 14:16:36;;;;;;;5.53;2.88;;;;;;;;;;5073318;28;20254;-60
2023/05/17 14:19:04;;;;;;;4.70;2.95;;;;;;;;;;5073954;28;20208;-60
2023/05/17 14:21:30;;;;;;;3.88;2.67;;;;;;;;;;5072146;28;20215;-60
2023/05/17 14:23:56;;;;;;;4.38;3.00;;;;;;;;;;5075052;28;20262;-61
2023/05/17 14:26:22;;;;;;;8.38;3.08;;;;;;;;;;5069687;28;20242;-60
2023/05/17 14:28:49;;;;;;;6.03;2.63;;;;;;;;;;5074015;28;20286;-60
2023/05/17 14:31:15;;;;;;;6.00;3.28;;;;;;;;;;5077278;28;20515;-60
2023/05/17 14:33:41;;;;;;;4.70;2.80;;;;;;;;;;5078454;28;20212;-59
2023/05/17 14:36:09;;;;;;;5.43;2.72;;;;;;;;;;5078314;28;20226;-60
2023/05/17 14:38:37;;;;;;;8.30;2.67;;;;;;;;;;5083423;28;20515;-60
2023/05/17 14:41:05;;;;;;;2.65;2.45;;;;;;;;;;5074107;28;20204;-60